Norfolk — WDG2147 — position and weather

sailwx.info

Track history (hours):
 
Tides and Currents Weather Stations Pressure Air Temp Water Temp Dewpoint Dewpoint Depression Visibility Wind Speed Wind Dir Waves Ship Positions

Norfolk

Owner: Virginia Pilot Boat Corporation, Virginia Beach, VA. More information available from US FCC via Universal Licensing System and Coast Guard Vessel Documentation Center.

Last reported at 2018-Apr-25 23:29 UTC. Time now 2018-Apr-26 17:27 UTC.
Position N 36°54' W 076°05'.

Length 18 m; draft 1.5 m.

Type: Pilot. MMSI: 367512630.

Date/timePositionNaut miles runAvg speedWind from/ knotsBaromVisibWave heightAir tempDewpointWater temp
2018-Apr-25 23:29N 36°54' W 076°05'0 0.0
2018-Apr-25 22:54N 36°54' W 076°05'0 0.0
2018-Apr-25 22:30N 36°54' W 076°05'0 0.0
2018-Apr-25 21:18N 36°54' W 076°05'0 0.0
2018-Apr-25 20:54N 36°54' W 076°05'0 0.0
2018-Apr-25 19:26N 36°54' W 076°05'3 3.5
2018-Apr-25 18:40N 36°56' W 076°03'3 0.1
2018-Apr-24 20:58N 36°54' W 076°05'6 9.0
2018-Apr-24 20:20N 36°58' W 076°00'2 5.7
2018-Apr-24 20:00N 36°60' W 076°01'611.5
2018-Apr-24 19:27N 36°54' W 076°05'0 0.0
2018-Apr-24 19:00N 36°54' W 076°05'0 0.0
2018-Apr-24 18:30N 36°54' W 076°05'3 0.9
2018-Apr-24 14:53N 36°58' W 076°05'3 8.1
2018-Apr-24 14:31N 36°54' W 076°05'0 0.0
2018-Apr-24 14:01N 36°54' W 076°05'1 1.5
2018-Apr-24 13:29N 36°55' W 076°05'3 4.7
2018-Apr-24 12:46N 36°56' W 076°01'414.2
2018-Apr-24 12:30N 36°54' W 076°05'0 0.0
2018-Apr-24 12:00N 36°54' W 076°05'0 0.0
2018-Apr-24 11:30N 36°54' W 076°05'4 7.2
2018-Apr-24 11:00N 36°57' W 076°02'4 0.3
2018-Apr-23 22:39N 36°54' W 076°05'0 0.0
2018-Apr-23 22:30N 36°54' W 076°05'0 0.0
2018-Apr-23 22:00N 36°54' W 076°05'813.2
2018-Apr-23 21:25N 36°56' W 075°56'817.9
2018-Apr-23 21:00N 36°55' W 076°05'0 0.8
2018-Apr-23 20:30N 36°54' W 076°05'0 0.0
2018-Apr-23 20:00N 36°54' W 076°05'3 1.3
2018-Apr-23 17:54N 36°57' W 076°05'3 6.3
2018-Apr-23 17:27N 36°54' W 076°05'510.4
2018-Apr-23 17:00N 36°57' W 076°00'5 9.4
2018-Apr-23 16:29N 36°54' W 076°05'0 0.2
2018-Apr-23 15:48N 36°54' W 076°05'0 0.0
2018-Apr-23 15:30N 36°54' W 076°05'0 0.0
2018-Apr-23 14:48N 36°54' W 076°05'1 0.1
2018-Apr-23 07:55N 36°55' W 076°05'1 1.8
2018-Apr-23 07:20N 36°54' W 076°05'917.9
2018-Apr-23 06:51N 36°55' W 075°55'9 1.2
2018-Apr-22 23:52N 36°54' W 076°05'0 0.0
2018-Apr-22 23:30N 36°54' W 076°05'0 0.0
2018-Apr-22 23:00N 36°54' W 076°05'0 0.0
2018-Apr-22 22:30N 36°54' W 076°05'0 0.0
2018-Apr-22 21:59N 36°54' W 076°05'0 0.0
2018-Apr-22 21:29N 36°54' W 076°05'0 0.0
2018-Apr-22 20:59N 36°54' W 076°05'0 0.0
2018-Apr-22 20:18N 36°54' W 076°05'0 0.0
2018-Apr-22 19:49N 36°54' W 076°05'0 0.0
2018-Apr-22 19:30N 36°54' W 076°05'0 0.0
2018-Apr-22 18:53N 36°54' W 076°05'0 0.0
2018-Apr-22 18:30N 36°54' W 076°05'0 0.0
2018-Apr-22 18:00N 36°54' W 076°05'0 0.0
2018-Apr-22 17:30N 36°54' W 076°05'0 0.0
2018-Apr-22 17:00N 36°54' W 076°05'0 0.0
2018-Apr-22 16:30N 36°54' W 076°05'0 0.0
2018-Apr-22 16:00N 36°54' W 076°05'0 0.0
2018-Apr-22 15:29N 36°54' W 076°05'0 0.0
2018-Apr-22 14:59N 36°54' W 076°05'0 0.0
2018-Apr-22 14:27N 36°54' W 076°05'0 0.0
2018-Apr-22 13:57N 36°54' W 076°05'0 0.0
2018-Apr-22 13:24N 36°54' W 076°05'0 0.0
2018-Apr-22 12:59N 36°54' W 076°05'0 0.0
2018-Apr-22 12:30N 36°54' W 076°05'6 9.8
2018-Apr-22 11:53N 36°56' W 075°58'2 4.3
2018-Apr-22 11:30N 36°56' W 076°00'5 5.4
2018-Apr-22 10:40N 36°54' W 076°05'214.8
2018-Apr-22 10:30N 36°56' W 076°03'2 3.1
2018-Apr-22 09:44N 36°54' W 076°06'0 0.1
2018-Apr-22 09:16N 36°54' W 076°05'411.7
2018-Apr-22 08:55N 36°57' W 076°02'2 3.3
2018-Apr-22 08:14N 36°56' W 076°04'2 5.5
2018-Apr-22 07:54N 36°54' W 076°06'814.4
2018-Apr-22 07:20N 36°56' W 075°55'817.9
2018-Apr-22 06:54N 36°55' W 076°05'1 0.1
2018-Apr-22 00:29N 36°54' W 076°06'815.3
2018-Apr-21 23:56N 36°55' W 075°55'818.5
2018-Apr-21 23:29N 36°54' W 076°05'0 0.0
2018-Apr-21 23:00N 36°54' W 076°05'0 0.0
2018-Apr-21 22:30N 36°54' W 076°05'0 0.0
2018-Apr-21 22:00N 36°54' W 076°05'0 0.0
2018-Apr-21 21:26N 36°54' W 076°05'0 0.0
2018-Apr-21 21:01N 36°54' W 076°05'0 0.0
2018-Apr-21 20:31N 36°54' W 076°05'0 0.9
2018-Apr-21 19:59N 36°55' W 076°05'2 1.5
2018-Apr-21 18:34N 36°57' W 076°05'225.0
2018-Apr-21 18:30N 36°55' W 076°05'1 1.5
2018-Apr-21 17:50N 36°54' W 076°05'0 0.0
2018-Apr-21 17:27N 36°54' W 076°05'0 0.0
2018-Apr-21 16:59N 36°54' W 076°05'0 0.0
2018-Apr-21 16:25N 36°54' W 076°05'0 0.0
2018-Apr-21 16:00N 36°54' W 076°05'0 0.1
2018-Apr-21 15:30N 36°54' W 076°05'4 7.2
2018-Apr-21 14:53N 36°57' W 076°01'410.7
2018-Apr-21 14:30N 36°55' W 076°05'1 1.0
2018-Apr-21 13:57N 36°54' W 076°05'0 0.0
2018-Apr-21 13:30N 36°54' W 076°05'3 5.6
2018-Apr-21 12:58N 36°56' W 076°02'4 8.8
2018-Apr-21 12:30N 36°55' W 075°57'2 3.5
2018-Apr-21 11:51N 36°57' W 075°55'616.8
2018-Apr-21 11:30N 36°56' W 076°02'1 2.4
2018-Apr-21 10:55N 36°57' W 076°00'4 2.4
2018-Apr-21 09:19N 36°55' W 076°05'822.5
2018-Apr-21 08:57N 36°55' W 075°55'20 1.9
2018-Apr-20 22:09N 36°55' W 076°20'0 0.0
2018-Apr-20 22:00N 36°55' W 076°20'0 0.0
2018-Apr-20 21:30N 36°55' W 076°20'0 0.0
2018-Apr-20 21:00N 36°55' W 076°20'3 0.6
2018-Apr-20 16:46N 36°52' W 076°21'3 2.2
2018-Apr-20 15:31N 36°55' W 076°20'0 0.4
2018-Apr-20 15:30N 36°55' W 076°20'11 9.5
2018-Apr-20 14:18N 36°55' W 076°05'0 0.8
2018-Apr-20 13:49N 36°54' W 076°05'0 0.5
2018-Apr-20 13:29N 36°55' W 076°06'817.7
2018-Apr-20 13:00N 36°55' W 075°55'815.4
2018-Apr-20 12:31N 36°55' W 076°05'1 1.3
2018-Apr-20 11:34N 36°54' W 076°05'111.7
2018-Apr-20 11:30N 36°55' W 076°05'2 3.6
2018-Apr-20 11:00N 36°57' W 076°04'3 5.2
2018-Apr-20 10:30N 36°54' W 076°05'1 0.8
2018-Apr-20 08:40N 36°56' W 076°04'314.5
2018-Apr-20 08:26N 36°57' W 076°01'4 4.5
2018-Apr-20 07:35N 36°55' W 076°05'1 0.1
2018-Apr-19 23:45N 36°54' W 076°05'0 0.0
2018-Apr-19 23:30N 36°54' W 076°05'0 0.0
2018-Apr-19 23:00N 36°54' W 076°05'0 0.0
2018-Apr-19 22:22N 36°54' W 076°05'2 1.1
2018-Apr-19 20:41N 36°56' W 076°05'2 9.7
2018-Apr-19 20:30N 36°54' W 076°05'0 0.0
2018-Apr-19 19:54N 36°54' W 076°05'0 0.0
2018-Apr-19 19:30N 36°54' W 076°05'0 0.0
2018-Apr-19 19:00N 36°54' W 076°05'0 0.0
2018-Apr-19 18:29N 36°54' W 076°05'0 0.0
2018-Apr-19 17:58N 36°54' W 076°05'714.5
2018-Apr-19 17:29N 36°56' W 075°57'713.7
2018-Apr-19 16:59N 36°54' W 076°05'0 0.0
2018-Apr-19 15:09N 36°54' W 076°05'0 0.5
2018-Apr-19 14:57N 36°54' W 076°05'2 1.4
2018-Apr-19 13:30N 36°56' W 076°05'2 3.7
2018-Apr-19 12:58N 36°54' W 076°05'0 0.0
2018-Apr-19 12:29N 36°54' W 076°05'0 0.0
2018-Apr-19 11:55N 36°54' W 076°05'0 0.1
2018-Apr-19 11:30N 36°54' W 076°05'5 9.0
2018-Apr-19 10:56N 36°57' W 076°00'5 1.1
2018-Apr-19 06:00N 36°54' W 076°05'0 0.0
2018-Apr-19 04:24N 36°54' W 076°05'4 8.3
2018-Apr-19 03:54N 36°57' W 076°02'3 0.6
2018-Apr-18 23:35N 36°59' W 076°05'224.8
2018-Apr-18 23:30N 36°57' W 076°05'2 0.7
2018-Apr-18 20:26N 36°54' W 076°05'2 4.3
2018-Apr-18 20:00N 36°56' W 076°04'2 4.2
2018-Apr-18 19:29N 36°57' W 076°02'3 0.8
2018-Apr-18 16:16N 36°57' W 076°05'2 0.8
2018-Apr-18 13:37N 36°54' W 076°05'0 0.1
2018-Apr-18 13:29N 36°54' W 076°05'0 0.0
2018-Apr-18 12:39N 36°54' W 076°05'0 0.2
2018-Apr-18 12:29N 36°54' W 076°05'913.1
2018-Apr-18 11:50N 36°57' W 075°55'720.8
2018-Apr-18 11:30N 36°56' W 076°03'2 4.5
2018-Apr-18 10:59N 36°54' W 076°05'0 0.0
2018-Apr-18 08:18N 36°54' W 076°05'817.8
2018-Apr-18 07:53N 36°56' W 075°56'7 0.9
2018-Apr-17 23:34N 36°58' W 076°05'224.7
2018-Apr-17 23:30N 36°56' W 076°05'2 1.2
2018-Apr-17 21:52N 36°54' W 076°05'0 0.0
2018-Apr-17 21:26N 36°54' W 076°05'0 0.0
2018-Apr-17 21:00N 36°54' W 076°05'0 0.0
2018-Apr-17 20:28N 36°54' W 076°05'0 0.0
2018-Apr-17 20:00N 36°54' W 076°05'0 0.0
2018-Apr-17 19:30N 36°54' W 076°05'0 0.0
2018-Apr-17 19:00N 36°54' W 076°05'0 0.0
2018-Apr-17 18:30N 36°54' W 076°05'0 0.0
2018-Apr-17 18:00N 36°54' W 076°05'0 0.0
2018-Apr-17 17:30N 36°54' W 076°05'0 0.0
2018-Apr-17 16:53N 36°54' W 076°05'0 0.0
2018-Apr-17 16:27N 36°54' W 076°05'0 0.0
2018-Apr-17 15:58N 36°54' W 076°05'0 0.0
2018-Apr-17 15:22N 36°54' W 076°05'0 0.0
2018-Apr-17 14:37N 36°54' W 076°05'0 0.0
2018-Apr-17 14:16N 36°54' W 076°05'0 0.0
2018-Apr-17 13:50N 36°54' W 076°05'0 0.0
2018-Apr-17 12:59N 36°54' W 076°05'2 1.5
2018-Apr-17 11:18N 36°57' W 076°05'2 0.2
2018-Apr-16 23:23N 36°54' W 076°05'0 0.0
2018-Apr-16 22:16N 36°54' W 076°05'0 0.0
2018-Apr-16 21:59N 36°54' W 076°05'0 0.0
2018-Apr-16 20:27N 36°54' W 076°05'0 0.0
2018-Apr-16 19:58N 36°54' W 076°05'0 0.0
2018-Apr-16 19:24N 36°54' W 076°05'0 0.0
2018-Apr-16 18:54N 36°54' W 076°05'0 0.0
2018-Apr-16 18:28N 36°54' W 076°05'0 0.0
2018-Apr-16 17:58N 36°54' W 076°05'0 0.0
2018-Apr-16 17:30N 36°54' W 076°05'0 0.0
2018-Apr-16 16:58N 36°54' W 076°05'0 0.0
2018-Apr-16 16:20N 36°54' W 076°05'0 0.0
2018-Apr-16 16:00N 36°54' W 076°05'0 0.0
2018-Apr-16 15:30N 36°54' W 076°05'0 0.0
2018-Apr-16 14:59N 36°54' W 076°05'0 0.0
2018-Apr-16 14:30N 36°54' W 076°05'0 0.0
2018-Apr-16 13:59N 36°54' W 076°05'0 0.0
2018-Apr-16 13:29N 36°54' W 076°05'0 0.0
2018-Apr-16 13:00N 36°54' W 076°05'0 0.0
2018-Apr-16 12:30N 36°54' W 076°05'0 0.0
2018-Apr-16 11:48N 36°54' W 076°05'0 0.0
2018-Apr-16 11:30N 36°54' W 076°05'5 8.9
2018-Apr-16 10:59N 36°57' W 076°01'1 0.1
2018-Apr-15 23:37N 36°57' W 076°02'0 1.2
2018-Apr-15 23:29N 36°57' W 076°02'  
Track history (hours):
 
Tides and Currents Weather Stations Pressure Air Temp Water Temp Dewpoint Dewpoint Depression Visibility Wind Speed Wind Dir Waves Ship Positions

Norfolk

Owner: Virginia Pilot Boat Corporation, Virginia Beach, VA. More information available from US FCC via Universal Licensing System and Coast Guard Vessel Documentation Center.

Last reported at 2018-Apr-25 23:29 UTC. Time now 2018-Apr-26 17:27 UTC.
Position N 36°54' W 076°05'.

Length 18 m; draft 1.5 m.

Type: Pilot. MMSI: 367512630.

Date/timePositionNaut miles runAvg speedWind from/ knotsBaromVisibWave heightAir tempDewpointWater temp
2018-Apr-25 23:29N 36°54' W 076°05'0 0.0
2018-Apr-25 22:54N 36°54' W 076°05'0 0.0
2018-Apr-25 22:30N 36°54' W 076°05'0 0.0
2018-Apr-25 21:18N 36°54' W 076°05'0 0.0
2018-Apr-25 20:54N 36°54' W 076°05'0 0.0
2018-Apr-25 19:26N 36°54' W 076°05'3 3.5
2018-Apr-25 18:40N 36°56' W 076°03'3 0.1
2018-Apr-24 20:58N 36°54' W 076°05'6 9.0
2018-Apr-24 20:20N 36°58' W 076°00'2 5.7
2018-Apr-24 20:00N 36°60' W 076°01'611.5
2018-Apr-24 19:27N 36°54' W 076°05'0 0.0
2018-Apr-24 19:00N 36°54' W 076°05'0 0.0
2018-Apr-24 18:30N 36°54' W 076°05'3 0.9
2018-Apr-24 14:53N 36°58' W 076°05'3 8.1
2018-Apr-24 14:31N 36°54' W 076°05'0 0.0
2018-Apr-24 14:01N 36°54' W 076°05'1 1.5
2018-Apr-24 13:29N 36°55' W 076°05'3 4.7
2018-Apr-24 12:46N 36°56' W 076°01'414.2
2018-Apr-24 12:30N 36°54' W 076°05'0 0.0
2018-Apr-24 12:00N 36°54' W 076°05'0 0.0
2018-Apr-24 11:30N 36°54' W 076°05'4 7.2
2018-Apr-24 11:00N 36°57' W 076°02'4 0.3
2018-Apr-23 22:39N 36°54' W 076°05'0 0.0
2018-Apr-23 22:30N 36°54' W 076°05'0 0.0
2018-Apr-23 22:00N 36°54' W 076°05'813.2
2018-Apr-23 21:25N 36°56' W 075°56'817.9
2018-Apr-23 21:00N 36°55' W 076°05'0 0.8
2018-Apr-23 20:30N 36°54' W 076°05'0 0.0
2018-Apr-23 20:00N 36°54' W 076°05'3 1.3
2018-Apr-23 17:54N 36°57' W 076°05'3 6.3
2018-Apr-23 17:27N 36°54' W 076°05'510.4
2018-Apr-23 17:00N 36°57' W 076°00'5 9.4
2018-Apr-23 16:29N 36°54' W 076°05'0 0.2
2018-Apr-23 15:48N 36°54' W 076°05'0 0.0
2018-Apr-23 15:30N 36°54' W 076°05'0 0.0
2018-Apr-23 14:48N 36°54' W 076°05'1 0.1
2018-Apr-23 07:55N 36°55' W 076°05'1 1.8
2018-Apr-23 07:20N 36°54' W 076°05'917.9
2018-Apr-23 06:51N 36°55' W 075°55'9 1.2
2018-Apr-22 23:52N 36°54' W 076°05'0 0.0
2018-Apr-22 23:30N 36°54' W 076°05'0 0.0
2018-Apr-22 23:00N 36°54' W 076°05'0 0.0
2018-Apr-22 22:30N 36°54' W 076°05'0 0.0
2018-Apr-22 21:59N 36°54' W 076°05'0 0.0
2018-Apr-22 21:29N 36°54' W 076°05'0 0.0
2018-Apr-22 20:59N 36°54' W 076°05'0 0.0
2018-Apr-22 20:18N 36°54' W 076°05'0 0.0
2018-Apr-22 19:49N 36°54' W 076°05'0 0.0
2018-Apr-22 19:30N 36°54' W 076°05'0 0.0
2018-Apr-22 18:53N 36°54' W 076°05'0 0.0
2018-Apr-22 18:30N 36°54' W 076°05'0 0.0
2018-Apr-22 18:00N 36°54' W 076°05'0 0.0
2018-Apr-22 17:30N 36°54' W 076°05'0 0.0
2018-Apr-22 17:00N 36°54' W 076°05'0 0.0
2018-Apr-22 16:30N 36°54' W 076°05'0 0.0
2018-Apr-22 16:00N 36°54' W 076°05'0 0.0
2018-Apr-22 15:29N 36°54' W 076°05'0 0.0
2018-Apr-22 14:59N 36°54' W 076°05'0 0.0
2018-Apr-22 14:27N 36°54' W 076°05'0 0.0
2018-Apr-22 13:57N 36°54' W 076°05'0 0.0
2018-Apr-22 13:24N 36°54' W 076°05'0 0.0
2018-Apr-22 12:59N 36°54' W 076°05'0 0.0
2018-Apr-22 12:30N 36°54' W 076°05'6 9.8
2018-Apr-22 11:53N 36°56' W 075°58'2 4.3
2018-Apr-22 11:30N 36°56' W 076°00'5 5.4
2018-Apr-22 10:40N 36°54' W 076°05'214.8
2018-Apr-22 10:30N 36°56' W 076°03'2 3.1
2018-Apr-22 09:44N 36°54' W 076°06'0 0.1
2018-Apr-22 09:16N 36°54' W 076°05'411.7
2018-Apr-22 08:55N 36°57' W 076°02'2 3.3
2018-Apr-22 08:14N 36°56' W 076°04'2 5.5
2018-Apr-22 07:54N 36°54' W 076°06'814.4
2018-Apr-22 07:20N 36°56' W 075°55'817.9
2018-Apr-22 06:54N 36°55' W 076°05'1 0.1
2018-Apr-22 00:29N 36°54' W 076°06'815.3
2018-Apr-21 23:56N 36°55' W 075°55'818.5
2018-Apr-21 23:29N 36°54' W 076°05'0 0.0
2018-Apr-21 23:00N 36°54' W 076°05'0 0.0
2018-Apr-21 22:30N 36°54' W 076°05'0 0.0
2018-Apr-21 22:00N 36°54' W 076°05'0 0.0
2018-Apr-21 21:26N 36°54' W 076°05'0 0.0
2018-Apr-21 21:01N 36°54' W 076°05'0 0.0
2018-Apr-21 20:31N 36°54' W 076°05'0 0.9
2018-Apr-21 19:59N 36°55' W 076°05'2 1.5
2018-Apr-21 18:34N 36°57' W 076°05'225.0
2018-Apr-21 18:30N 36°55' W 076°05'1 1.5
2018-Apr-21 17:50N 36°54' W 076°05'0 0.0
2018-Apr-21 17:27N 36°54' W 076°05'0 0.0
2018-Apr-21 16:59N 36°54' W 076°05'0 0.0
2018-Apr-21 16:25N 36°54' W 076°05'0 0.0
2018-Apr-21 16:00N 36°54' W 076°05'0 0.1
2018-Apr-21 15:30N 36°54' W 076°05'4 7.2
2018-Apr-21 14:53N 36°57' W 076°01'410.7
2018-Apr-21 14:30N 36°55' W 076°05'1 1.0
2018-Apr-21 13:57N 36°54' W 076°05'0 0.0
2018-Apr-21 13:30N 36°54' W 076°05'3 5.6
2018-Apr-21 12:58N 36°56' W 076°02'4 8.8
2018-Apr-21 12:30N 36°55' W 075°57'2 3.5
2018-Apr-21 11:51N 36°57' W 075°55'616.8
2018-Apr-21 11:30N 36°56' W 076°02'1 2.4
2018-Apr-21 10:55N 36°57' W 076°00'4 2.4
2018-Apr-21 09:19N 36°55' W 076°05'822.5
2018-Apr-21 08:57N 36°55' W 075°55'20 1.9
2018-Apr-20 22:09N 36°55' W 076°20'0 0.0
2018-Apr-20 22:00N 36°55' W 076°20'0 0.0
2018-Apr-20 21:30N 36°55' W 076°20'0 0.0
2018-Apr-20 21:00N 36°55' W 076°20'3 0.6
2018-Apr-20 16:46N 36°52' W 076°21'3 2.2
2018-Apr-20 15:31N 36°55' W 076°20'0 0.4
2018-Apr-20 15:30N 36°55' W 076°20'11 9.5
2018-Apr-20 14:18N 36°55' W 076°05'0 0.8
2018-Apr-20 13:49N 36°54' W 076°05'0 0.5
2018-Apr-20 13:29N 36°55' W 076°06'817.7
2018-Apr-20 13:00N 36°55' W 075°55'815.4
2018-Apr-20 12:31N 36°55' W 076°05'1 1.3
2018-Apr-20 11:34N 36°54' W 076°05'111.7
2018-Apr-20 11:30N 36°55' W 076°05'2 3.6
2018-Apr-20 11:00N 36°57' W 076°04'3 5.2
2018-Apr-20 10:30N 36°54' W 076°05'1 0.8
2018-Apr-20 08:40N 36°56' W 076°04'314.5
2018-Apr-20 08:26N 36°57' W 076°01'4 4.5
2018-Apr-20 07:35N 36°55' W 076°05'1 0.1
2018-Apr-19 23:45N 36°54' W 076°05'0 0.0
2018-Apr-19 23:30N 36°54' W 076°05'0 0.0
2018-Apr-19 23:00N 36°54' W 076°05'0 0.0
2018-Apr-19 22:22N 36°54' W 076°05'2 1.1
2018-Apr-19 20:41N 36°56' W 076°05'2 9.7
2018-Apr-19 20:30N 36°54' W 076°05'0 0.0
2018-Apr-19 19:54N 36°54' W 076°05'0 0.0
2018-Apr-19 19:30N 36°54' W 076°05'0 0.0
2018-Apr-19 19:00N 36°54' W 076°05'0 0.0
2018-Apr-19 18:29N 36°54' W 076°05'0 0.0
2018-Apr-19 17:58N 36°54' W 076°05'714.5
2018-Apr-19 17:29N 36°56' W 075°57'713.7
2018-Apr-19 16:59N 36°54' W 076°05'0 0.0
2018-Apr-19 15:09N 36°54' W 076°05'0 0.5
2018-Apr-19 14:57N 36°54' W 076°05'2 1.4
2018-Apr-19 13:30N 36°56' W 076°05'2 3.7
2018-Apr-19 12:58N 36°54' W 076°05'0 0.0
2018-Apr-19 12:29N 36°54' W 076°05'0 0.0
2018-Apr-19 11:55N 36°54' W 076°05'0 0.1
2018-Apr-19 11:30N 36°54' W 076°05'5 9.0
2018-Apr-19 10:56N 36°57' W 076°00'5 1.1
2018-Apr-19 06:00N 36°54' W 076°05'0 0.0
2018-Apr-19 04:24N 36°54' W 076°05'4 8.3
2018-Apr-19 03:54N 36°57' W 076°02'3 0.6
2018-Apr-18 23:35N 36°59' W 076°05'224.8
2018-Apr-18 23:30N 36°57' W 076°05'2 0.7
2018-Apr-18 20:26N 36°54' W 076°05'2 4.3
2018-Apr-18 20:00N 36°56' W 076°04'2 4.2
2018-Apr-18 19:29N 36°57' W 076°02'3 0.8
2018-Apr-18 16:16N 36°57' W 076°05'2 0.8
2018-Apr-18 13:37N 36°54' W 076°05'0 0.1
2018-Apr-18 13:29N 36°54' W 076°05'0 0.0
2018-Apr-18 12:39N 36°54' W 076°05'0 0.2
2018-Apr-18 12:29N 36°54' W 076°05'913.1
2018-Apr-18 11:50N 36°57' W 075°55'720.8
2018-Apr-18 11:30N 36°56' W 076°03'2 4.5
2018-Apr-18 10:59N 36°54' W 076°05'0 0.0
2018-Apr-18 08:18N 36°54' W 076°05'817.8
2018-Apr-18 07:53N 36°56' W 075°56'7 0.9
2018-Apr-17 23:34N 36°58' W 076°05'224.7
2018-Apr-17 23:30N 36°56' W 076°05'2 1.2
2018-Apr-17 21:52N 36°54' W 076°05'0 0.0
2018-Apr-17 21:26N 36°54' W 076°05'0 0.0
2018-Apr-17 21:00N 36°54' W 076°05'0 0.0
2018-Apr-17 20:28N 36°54' W 076°05'0 0.0
2018-Apr-17 20:00N 36°54' W 076°05'0 0.0
2018-Apr-17 19:30N 36°54' W 076°05'0 0.0
2018-Apr-17 19:00N 36°54' W 076°05'0 0.0
2018-Apr-17 18:30N 36°54' W 076°05'0 0.0
2018-Apr-17 18:00N 36°54' W 076°05'0 0.0
2018-Apr-17 17:30N 36°54' W 076°05'0 0.0
2018-Apr-17 16:53N 36°54' W 076°05'0 0.0
2018-Apr-17 16:27N 36°54' W 076°05'0 0.0
2018-Apr-17 15:58N 36°54' W 076°05'0 0.0
2018-Apr-17 15:22N 36°54' W 076°05'0 0.0
2018-Apr-17 14:37N 36°54' W 076°05'0 0.0
2018-Apr-17 14:16N 36°54' W 076°05'0 0.0
2018-Apr-17 13:50N 36°54' W 076°05'0 0.0
2018-Apr-17 12:59N 36°54' W 076°05'2 1.5
2018-Apr-17 11:18N 36°57' W 076°05'2 0.2
2018-Apr-16 23:23N 36°54' W 076°05'0 0.0
2018-Apr-16 22:16N 36°54' W 076°05'0 0.0
2018-Apr-16 21:59N 36°54' W 076°05'0 0.0
2018-Apr-16 20:27N 36°54' W 076°05'0 0.0
2018-Apr-16 19:58N 36°54' W 076°05'0 0.0
2018-Apr-16 19:24N 36°54' W 076°05'0 0.0
2018-Apr-16 18:54N 36°54' W 076°05'0 0.0
2018-Apr-16 18:28N 36°54' W 076°05'0 0.0
2018-Apr-16 17:58N 36°54' W 076°05'0 0.0
2018-Apr-16 17:30N 36°54' W 076°05'0 0.0
2018-Apr-16 16:58N 36°54' W 076°05'0 0.0
2018-Apr-16 16:20N 36°54' W 076°05'0 0.0
2018-Apr-16 16:00N 36°54' W 076°05'0 0.0
2018-Apr-16 15:30N 36°54' W 076°05'0 0.0
2018-Apr-16 14:59N 36°54' W 076°05'0 0.0
2018-Apr-16 14:30N 36°54' W 076°05'0 0.0
2018-Apr-16 13:59N 36°54' W 076°05'0 0.0
2018-Apr-16 13:29N 36°54' W 076°05'0 0.0
2018-Apr-16 13:00N 36°54' W 076°05'0 0.0
2018-Apr-16 12:30N 36°54' W 076°05'0 0.0
2018-Apr-16 11:48N 36°54' W 076°05'0 0.0
2018-Apr-16 11:30N 36°54' W 076°05'5 8.9
2018-Apr-16 10:59N 36°57' W 076°01'1 0.1
2018-Apr-15 23:37N 36°57' W 076°02'0 1.2
2018-Apr-15 23:29N 36°57' W 076°02'  

Dump ship's entire track history